createdAt,value
2017-01-03T00:00:12.955Z,74.07
2017-01-03T00:00:53.388Z,74.07
2017-01-03T00:01:33.903Z,74.07
2017-01-03T00:02:14.437Z,74.07
2017-01-03T00:02:55.026Z,74.83
2017-01-03T00:03:35.504Z,74.35
2017-01-03T00:04:15.972Z,74.64
2017-01-03T00:04:56.438Z,74.69
2017-01-03T00:05:36.959Z,75.31
2017-01-03T00:06:17.487Z,74.98
2017-01-03T00:06:57.875Z,74.73
2017-01-03T00:07:38.445Z,75.07
2017-01-03T00:08:18.943Z,75.07
2017-01-03T00:08:59.342Z,75.11
2017-01-03T00:09:39.840Z,74.88
2017-01-03T00:10:20.368Z,74.88
2017-01-03T00:11:00.855Z,74.54
2017-01-03T00:11:41.348Z,74.54
2017-01-03T00:12:21.903Z,74.35
2017-01-03T00:13:02.368Z,74.35
2017-01-03T00:13:42.893Z,74.35
2017-01-03T00:14:23.371Z,74.45
2017-01-03T00:15:03.825Z,73.88
2017-01-03T00:15:44.329Z,73.88
2017-01-03T00:16:24.831Z,73.69
2017-01-03T00:17:05.322Z,73.88
2017-01-03T00:17:45.774Z,74.16
2017-01-03T00:18:26.190Z,74.64
2017-01-03T00:19:06.707Z,74.54
2017-01-03T00:19:47.132Z,74.54
2017-01-03T00:20:27.598Z,74.54
2017-01-03T00:21:08.118Z,73.97
2017-01-03T00:21:48.585Z,73.69
2017-01-03T00:22:29.111Z,73.41
2017-01-03T00:23:09.690Z,73.6
2017-01-03T00:23:50.214Z,73.22
2017-01-03T00:24:30.663Z,73.5
2017-01-03T00:25:11.102Z,73.88
2017-01-03T00:25:51.670Z,73.79
2017-01-03T00:26:32.104Z,73.5
2017-01-03T00:27:12.599Z,73.12
2017-01-03T00:27:53.087Z,73.6
2017-01-03T00:28:33.535Z,73.22
2017-01-03T00:29:14.024Z,73.69
2017-01-03T00:29:54.597Z,73.6
2017-01-03T00:30:35.123Z,73.5
2017-01-03T00:31:15.629Z,73.5
2017-01-03T00:31:56.065Z,73.6
2017-01-03T00:32:36.560Z,73.5
2017-01-03T00:33:17.038Z,73.12
2017-01-03T00:35:05.940Z,72.93
2017-01-03T00:35:46.477Z,73.65
2017-01-03T00:36:26.998Z,73.79
2017-01-03T00:37:07.498Z,73.65
2017-01-03T00:37:47.939Z,73.69
2017-01-03T00:38:28.469Z,73.79
2017-01-03T00:39:08.886Z,73.79
2017-01-03T00:39:49.343Z,73.6
2017-01-03T00:40:29.868Z,73.88
2017-01-03T00:41:10.385Z,74.13
2017-01-03T00:41:50.824Z,74.69
2017-01-03T00:42:31.288Z,74.07
2017-01-03T00:43:11.757Z,73.69
2017-01-03T00:43:52.331Z,73.97
2017-01-03T00:44:32.863Z,73.88
2017-01-03T00:45:13.426Z,73.6
2017-01-03T00:45:53.861Z,73.22
2017-01-03T00:46:34.364Z,73.31
2017-01-03T00:47:15.012Z,73.22
2017-01-03T00:47:55.466Z,73.6
2017-01-03T00:48:35.984Z,73.6
2017-01-03T00:49:16.467Z,73.5
2017-01-03T00:49:56.973Z,73.69
2017-01-03T00:50:43.748Z,73.79
2017-01-03T00:51:24.334Z,73.22
2017-01-03T00:52:04.807Z,73.41
2017-01-03T00:52:45.304Z,73.22
2017-01-03T00:53:25.786Z,73.22
2017-01-03T00:54:06.250Z,73.12
2017-01-03T00:54:46.807Z,72.93
2017-01-03T00:55:27.306Z,73.03
2017-01-03T00:56:07.783Z,73.12
2017-01-03T00:56:48.261Z,72.74
2017-01-03T00:57:28.716Z,72.84
2017-01-03T00:58:09.252Z,73.22
2017-01-03T00:58:49.748Z,73.31
2017-01-03T00:59:30.227Z,73.12
2017-01-03T01:00:10.725Z,72.74
2017-01-03T01:00:51.228Z,72.64
2017-01-03T01:01:31.710Z,73.12
2017-01-03T01:02:12.157Z,73.69
2017-01-03T01:02:52.693Z,73.79
2017-01-03T01:03:33.223Z,73.88
2017-01-03T01:04:13.709Z,73.65
2017-01-03T01:04:54.184Z,73.5
2017-01-03T01:05:34.805Z,73.46
2017-01-03T01:06:15.278Z,73.84
2017-01-03T01:06:55.744Z,74.13
2017-01-03T01:07:36.259Z,73.84
2017-01-03T01:08:16.732Z,73.56
2017-01-03T01:08:57.180Z,73.65
2017-01-03T01:09:37.673Z,73.03
2017-01-03T01:10:18.161Z,73.41
2017-01-03T01:10:58.613Z,73.46
2017-01-03T01:11:39.113Z,73.37
2017-01-03T01:12:19.577Z,74.13
2017-01-03T01:13:00.063Z,74.6
2017-01-03T01:13:40.562Z,74.03
2017-01-03T01:14:21.055Z,74.22
2017-01-03T01:15:01.585Z,73.56
2017-01-03T01:15:42.033Z,74.22
2017-01-03T01:16:22.642Z,74.41
2017-01-03T01:17:03.124Z,74.79
2017-01-03T01:17:43.603Z,74.22
2017-01-03T01:18:24.088Z,74.13
2017-01-03T01:19:04.569Z,74.22
2017-01-03T01:19:45.051Z,74.32
2017-01-03T01:20:25.483Z,74.79
2017-01-03T01:21:05.973Z,74.41
2017-01-03T01:21:46.466Z,73.94
2017-01-03T01:22:26.934Z,74.03
2017-01-03T01:23:07.460Z,73.84
2017-01-03T01:23:47.953Z,73.65
2017-01-03T01:24:28.426Z,73.84
2017-01-03T01:25:08.913Z,74.13
2017-01-03T01:25:49.405Z,73.65
2017-01-03T01:26:29.920Z,73.84
2017-01-03T01:27:10.396Z,73.84
2017-01-03T01:27:50.873Z,73.84
2017-01-03T01:28:31.396Z,73.75
2017-01-03T01:29:11.838Z,74.03
2017-01-03T01:29:52.350Z,74.79
2017-01-03T01:30:32.828Z,74.13
2017-01-03T01:31:13.344Z,74.51
2017-01-03T01:31:53.846Z,74.79
2017-01-03T01:32:34.348Z,74.69
2017-01-03T01:33:14.840Z,74.6
2017-01-03T01:33:55.353Z,74.03
2017-01-03T01:34:35.871Z,74.6
2017-01-03T01:35:16.336Z,74.13
2017-01-03T01:35:56.856Z,74.22
2017-01-03T01:36:37.368Z,74.51
2017-01-03T01:37:17.838Z,74.79
2017-01-03T01:37:58.279Z,74.13
2017-01-03T01:38:38.809Z,74.79
2017-01-03T01:39:19.282Z,74.6
2017-01-03T01:39:59.805Z,74.03
2017-01-03T01:40:40.234Z,74.32
2017-01-03T01:41:20.740Z,74.03
2017-01-03T01:42:01.181Z,74.03
2017-01-03T01:42:41.692Z,73.84
2017-01-03T01:43:22.157Z,74.51
2017-01-03T01:44:02.629Z,74.03
2017-01-03T01:44:43.131Z,74.03
2017-01-03T01:45:23.604Z,73.84
2017-01-03T01:46:04.088Z,73.84
2017-01-03T01:46:44.583Z,74.32
2017-01-03T01:47:25.131Z,74.22
2017-01-03T01:48:05.584Z,74.51
2017-01-03T01:48:46.131Z,74.79
2017-01-03T01:49:26.576Z,74.03
2017-01-03T01:50:07.026Z,73.84
2017-01-03T01:50:47.611Z,73.84
2017-01-03T01:51:28.020Z,73.94
2017-01-03T01:52:08.485Z,73.65
2017-01-03T01:52:48.966Z,73.46
2017-01-03T01:53:29.475Z,73.84
2017-01-03T01:54:09.955Z,73.84
2017-01-03T01:54:50.506Z,73.84
2017-01-03T01:55:30.941Z,73.65
2017-01-03T01:56:11.409Z,73.65
2017-01-03T01:56:51.934Z,73.84
2017-01-03T01:57:32.405Z,74.13
2017-01-03T01:58:12.914Z,73.84
2017-01-03T01:58:53.440Z,73.94
2017-01-03T01:59:33.933Z,73.75
2017-01-03T02:00:14.435Z,73.27
2017-01-03T02:00:54.925Z,73.75
2017-01-03T02:01:35.484Z,73.65
2017-01-03T02:02:15.955Z,74.22
2017-01-03T02:02:56.399Z,73.94
2017-01-03T02:03:36.901Z,74.32
2017-01-03T02:04:17.380Z,74.32
2017-01-03T02:04:57.859Z,74.22
2017-01-03T02:05:38.373Z,74.6
2017-01-03T02:06:18.811Z,74.69
2017-01-03T02:06:59.339Z,74.22
2017-01-03T02:07:39.841Z,73.84
2017-01-03T02:08:20.304Z,74.03
2017-01-03T02:09:00.807Z,73.75
2017-01-03T02:09:41.290Z,73.84
2017-01-03T02:10:21.814Z,73.84
2017-01-03T02:11:02.277Z,73.75
2017-01-03T02:11:42.791Z,74.03
2017-01-03T02:12:23.255Z,73.84
2017-01-03T02:13:03.797Z,73.94
2017-01-03T02:13:44.248Z,73.18
2017-01-03T02:14:24.738Z,73.46
2017-01-03T02:15:05.238Z,73.46
2017-01-03T02:15:45.722Z,73.37
2017-01-03T02:16:26.287Z,73.75
2017-01-03T02:17:06.777Z,73.08
2017-01-03T02:17:47.285Z,73.56
2017-01-03T02:18:27.743Z,73.56
2017-01-03T02:19:08.253Z,73.75
2017-01-03T02:19:48.724Z,73.84
2017-01-03T02:20:29.231Z,74.22
2017-01-03T02:21:09.708Z,73.84
2017-01-03T02:21:50.200Z,74.13
2017-01-03T02:22:30.695Z,73.65
2017-01-03T02:23:11.182Z,73.94
2017-01-03T02:23:51.739Z,74.6
2017-01-03T02:24:32.247Z,74.6
2017-01-03T02:25:12.743Z,74.69
2017-01-03T02:25:53.219Z,73.94
2017-01-03T02:26:33.710Z,74.6
2017-01-03T02:27:14.209Z,73.94
2017-01-03T02:27:54.697Z,74.41
2017-01-03T02:28:35.198Z,74.88
2017-01-03T02:29:15.657Z,74.69
2017-01-03T02:29:56.139Z,74.22
2017-01-03T02:30:38.453Z,74.32
2017-01-03T02:31:18.902Z,74.6
2017-01-03T02:31:59.351Z,74.03
2017-01-03T02:32:39.851Z,73.84
2017-01-03T02:33:20.378Z,73.65
2017-01-03T02:34:00.841Z,73.65
2017-01-03T02:34:41.307Z,73.46
2017-01-03T02:35:21.878Z,73.41
2017-01-03T02:36:02.322Z,73.6
2017-01-03T02:36:42.840Z,73.03
2017-01-03T02:37:23.363Z,73.12
2017-01-03T02:38:03.856Z,73.65
2017-01-03T02:38:44.330Z,73.65
2017-01-03T02:39:24.851Z,73.46
2017-01-03T02:40:05.307Z,73.37
2017-01-03T02:40:45.810Z,73.65
2017-01-03T02:41:26.317Z,73.27
2017-01-03T02:42:06.800Z,73.5
2017-01-03T02:42:47.522Z,72.84
2017-01-03T02:43:27.973Z,73.37
2017-01-03T02:44:08.456Z,73.65
2017-01-03T02:44:48.985Z,73.56
2017-01-03T02:45:29.403Z,73.41
2017-01-03T02:46:09.923Z,73.5
2017-01-03T02:46:50.363Z,73.31
2017-01-03T02:47:30.889Z,73.03
2017-01-03T02:48:11.372Z,73.65
2017-01-03T02:48:51.829Z,73.27
2017-01-03T02:49:32.369Z,73.27
2017-01-03T02:50:12.870Z,73.27
2017-01-03T02:50:53.333Z,73.56
2017-01-03T02:51:33.780Z,73.46
2017-01-03T02:52:14.285Z,73.5
2017-01-03T02:52:54.766Z,73.41
2017-01-03T02:53:35.229Z,73.41
2017-01-03T02:54:15.724Z,73.69
2017-01-03T02:54:56.199Z,73.46
2017-01-03T02:55:36.712Z,73.6
2017-01-03T02:56:17.178Z,73.41
2017-01-03T02:56:57.649Z,73.22
2017-01-03T02:57:38.213Z,73.5
2017-01-03T02:58:19.594Z,73.69
2017-01-03T02:59:00.124Z,73.41
2017-01-03T02:59:40.604Z,73.69
2017-01-03T03:00:21.060Z,73.37
2017-01-03T03:01:01.577Z,73.79
2017-01-03T03:01:42.017Z,73.69
2017-01-03T03:02:22.493Z,73.41
2017-01-03T03:03:03.087Z,73.22
2017-01-03T03:03:43.540Z,73.03
2017-01-03T03:04:24.059Z,73.31
2017-01-03T03:05:04.575Z,73.41
2017-01-03T03:05:45.087Z,73.6
2017-01-03T03:06:25.543Z,72.93
2017-01-03T03:07:06.020Z,73.31
2017-01-03T03:07:46.525Z,73.31
2017-01-03T03:08:26.993Z,73.31
2017-01-03T03:09:07.534Z,73.22
2017-01-03T03:09:47.981Z,73.6
2017-01-03T03:10:28.489Z,72.93
2017-01-03T03:11:08.974Z,73.41
2017-01-03T03:11:49.504Z,73.41
2017-01-03T03:12:29.999Z,73.69
2017-01-03T03:13:10.523Z,73.69
2017-01-03T03:13:51.017Z,73.5
2017-01-03T03:14:31.492Z,73.5
2017-01-03T03:15:11.979Z,73.18
2017-01-03T03:15:52.513Z,73.37
2017-01-03T03:16:32.944Z,73.37
2017-01-03T03:17:13.472Z,73.46
2017-01-03T03:17:54.012Z,73.6
2017-01-03T03:18:34.474Z,72.84
2017-01-03T03:19:14.936Z,73.03
2017-01-03T03:19:55.420Z,73.37
2017-01-03T03:20:35.909Z,73.27
2017-01-03T03:21:16.456Z,73.69
2017-01-03T03:21:56.929Z,73.03
2017-01-03T03:22:37.379Z,73.6
2017-01-03T03:23:17.917Z,73.79
2017-01-03T03:23:58.370Z,73.69
2017-01-03T03:24:38.865Z,73.41
2017-01-03T03:25:19.555Z,73.56
2017-01-03T03:26:00.027Z,73.41
2017-01-03T03:26:40.514Z,73.69
2017-01-03T03:27:20.973Z,73.69
2017-01-03T03:28:01.506Z,73.18
2017-01-03T03:28:42.007Z,73.46
2017-01-03T03:29:22.539Z,73.18
2017-01-03T03:30:03.019Z,73.46
2017-01-03T03:30:43.503Z,73.65
2017-01-03T03:31:24.013Z,73.84
2017-01-03T03:32:04.526Z,73.84
2017-01-03T03:32:45.019Z,74.22
2017-01-03T03:33:25.462Z,74.79
2017-01-03T03:34:05.943Z,74.13
2017-01-03T03:34:46.425Z,74.41
2017-01-03T03:35:26.887Z,74.13
2017-01-03T03:36:07.485Z,73.75
2017-01-03T03:36:47.915Z,73.75
2017-01-03T03:37:28.439Z,74.03
2017-01-03T03:38:08.894Z,74.51
2017-01-03T03:38:49.381Z,74.41
2017-01-03T03:39:29.905Z,74.22
2017-01-03T03:40:10.379Z,74.6
2017-01-03T03:40:50.893Z,74.22
2017-01-03T03:41:31.381Z,73.84
2017-01-03T03:42:11.848Z,74.32
2017-01-03T03:42:52.422Z,73.94
2017-01-03T03:43:32.948Z,74.03
2017-01-03T03:44:13.441Z,73.94
2017-01-03T03:44:53.895Z,73.69
2017-01-03T03:45:34.418Z,73.6
2017-01-03T03:46:14.965Z,73.46
2017-01-03T03:46:55.377Z,73.65
2017-01-03T03:47:35.863Z,73.18
2017-01-03T03:48:16.375Z,73.65
2017-01-03T03:48:56.891Z,73.75
2017-01-03T03:49:37.409Z,73.65
2017-01-03T03:50:17.878Z,73.65
2017-01-03T03:50:58.340Z,73.18
2017-01-03T03:51:38.843Z,73.65
2017-01-03T03:52:19.320Z,73.5
2017-01-03T03:52:59.832Z,73.41
2017-01-03T03:53:40.306Z,73.69
2017-01-03T03:54:20.777Z,73.69
2017-01-03T03:55:01.295Z,73.03
2017-01-03T03:55:41.780Z,73.41
2017-01-03T03:56:22.296Z,73.41
2017-01-03T03:57:02.776Z,73.18
2017-01-03T03:57:43.314Z,73.56
2017-01-03T03:58:23.819Z,73.46
2017-01-03T03:59:04.281Z,73.5
2017-01-03T03:59:44.812Z,73.5
2017-01-03T04:00:25.294Z,73.65
2017-01-03T04:01:05.842Z,72.99
2017-01-03T04:02:53.842Z,73.41
2017-01-03T04:03:34.331Z,73.03
2017-01-03T04:04:14.867Z,73.5
2017-01-03T04:04:55.390Z,73.75
2017-01-03T04:05:35.877Z,74.22
2017-01-03T04:06:16.492Z,73.97
2017-01-03T04:06:56.963Z,74.03
2017-01-03T04:07:37.500Z,73.65
2017-01-03T04:08:17.995Z,73.84
2017-01-03T04:08:58.456Z,73.84
2017-01-03T04:09:38.935Z,73.69
2017-01-03T04:10:19.411Z,73.84
2017-01-03T04:10:59.969Z,73.65
2017-01-03T04:11:40.425Z,73.84
2017-01-03T04:12:20.920Z,73.56
2017-01-03T04:13:01.634Z,73.41
2017-01-03T04:13:42.043Z,73.75
2017-01-03T04:14:22.499Z,73.75
2017-01-03T04:15:03.000Z,73.94
2017-01-03T04:15:43.490Z,73.75
2017-01-03T04:16:23.955Z,73.46
2017-01-03T04:17:04.636Z,73.75
2017-01-03T04:17:45.138Z,73.84
2017-01-03T04:18:25.600Z,73.75
2017-01-03T04:19:06.152Z,73.22
2017-01-03T04:19:46.792Z,73.31
2017-01-03T04:20:27.126Z,73.31
2017-01-03T04:21:07.608Z,73.6
2017-01-03T04:21:48.096Z,73.18
2017-01-03T04:22:28.578Z,73.31
2017-01-03T04:23:09.090Z,72.99
2017-01-03T04:23:49.595Z,73.37
2017-01-03T04:24:30.049Z,73.46
2017-01-03T04:25:10.507Z,72.99
2017-01-03T04:25:51.011Z,72.99
2017-01-03T04:26:31.597Z,73.27
2017-01-03T04:27:12.262Z,73.46
2017-01-03T04:27:52.711Z,74.13
2017-01-03T04:28:33.173Z,74.03
2017-01-03T04:29:13.682Z,73.65
2017-01-03T04:29:54.174Z,73.56
2017-01-03T04:30:34.674Z,73.37
2017-01-03T04:32:32.858Z,73.27
2017-01-03T04:33:13.288Z,73.46
2017-01-03T04:33:53.785Z,73.37
2017-01-03T04:34:34.329Z,73.41
2017-01-03T04:35:14.816Z,73.46
2017-01-03T04:35:55.391Z,73.46
2017-01-03T04:36:35.927Z,73.37
2017-01-03T04:37:16.400Z,73.27
2017-01-03T04:37:56.933Z,73.56
2017-01-03T04:38:37.447Z,73.18
2017-01-03T04:39:17.837Z,73.37
2017-01-03T04:39:58.348Z,73.46
2017-01-03T04:40:38.832Z,73.41
2017-01-03T04:41:19.315Z,73.41
2017-01-03T04:41:59.771Z,73.56
2017-01-03T04:42:40.309Z,73.56
2017-01-03T04:43:20.762Z,73.65
2017-01-03T04:44:01.314Z,73.75
2017-01-03T04:44:41.817Z,73.65
2017-01-03T04:45:22.310Z,73.37
2017-01-03T04:46:02.783Z,73.37
2017-01-03T04:46:43.349Z,72.99
2017-01-03T04:47:23.797Z,73.37
2017-01-03T04:48:04.303Z,73.75
2017-01-03T04:48:44.744Z,73.27
2017-01-03T04:49:25.232Z,73.37
2017-01-03T04:50:05.748Z,73.37
2017-01-03T04:50:46.260Z,73.65
2017-01-03T04:51:26.755Z,74.22
2017-01-03T04:52:07.259Z,73.75
2017-01-03T04:52:47.750Z,73.56
2017-01-03T04:53:28.222Z,72.99
2017-01-03T04:54:08.746Z,73.56
2017-01-03T04:54:49.273Z,73.37
2017-01-03T04:55:29.761Z,73.46
2017-01-03T04:56:10.354Z,73.94
2017-01-03T04:56:50.733Z,73.84
2017-01-03T04:57:31.214Z,73.94
2017-01-03T04:58:11.738Z,73.69
2017-01-03T04:58:52.262Z,73.46
2017-01-03T04:59:32.843Z,73.65
2017-01-03T05:00:13.220Z,73.46
2017-01-03T05:00:53.851Z,73.5
2017-01-03T05:01:34.316Z,73.31
2017-01-03T05:02:14.850Z,73.41
2017-01-03T05:02:55.275Z,73.37
2017-01-03T05:03:35.819Z,73.37
2017-01-03T05:04:16.271Z,73.65
2017-01-03T05:04:56.765Z,73.56
2017-01-03T05:05:37.206Z,73.84
2017-01-03T05:06:17.689Z,73.79
2017-01-03T05:06:58.172Z,72.99
2017-01-03T05:07:38.673Z,73.94
2017-01-03T05:08:19.181Z,73.84
2017-01-03T05:08:59.696Z,73.94
2017-01-03T05:09:40.153Z,73.84
2017-01-03T05:10:20.635Z,73.46
2017-01-03T05:11:01.113Z,73.56
2017-01-03T05:11:41.572Z,73.56
2017-01-03T05:12:22.088Z,73.08
2017-01-03T05:13:02.545Z,73.31
2017-01-03T05:13:43.051Z,72.93
2017-01-03T05:14:23.525Z,73.5
2017-01-03T05:15:04.111Z,73.37
2017-01-03T05:15:44.621Z,73.6
2017-01-03T05:16:25.145Z,73.31
2017-01-03T05:17:05.566Z,73.6
2017-01-03T05:17:46.036Z,73.6
2017-01-03T05:18:26.488Z,73.08
2017-01-03T05:19:06.986Z,73.5
2017-01-03T05:19:47.514Z,73.6
2017-01-03T05:20:27.963Z,73.41
2017-01-03T05:21:08.493Z,73.12
2017-01-03T05:21:48.984Z,73.27
2017-01-03T05:22:29.426Z,73.18
2017-01-03T05:23:09.952Z,73.75
2017-01-03T05:23:50.411Z,73.65
2017-01-03T05:24:30.877Z,73.75
2017-01-03T05:25:11.371Z,73.94
2017-01-03T05:25:51.889Z,73.84
2017-01-03T05:26:32.398Z,73.75
2017-01-03T05:27:12.849Z,73.46
2017-01-03T05:27:53.329Z,73.84
2017-01-03T05:28:33.849Z,74.51
2017-01-03T05:29:14.390Z,74.88
2017-01-03T05:29:54.868Z,74.88
2017-01-03T05:30:35.377Z,74.79
2017-01-03T05:31:15.822Z,74.69
2017-01-03T05:31:56.324Z,74.79
2017-01-03T05:32:36.787Z,74.32
2017-01-03T05:33:17.300Z,73.75
2017-01-03T05:33:57.807Z,73.46
2017-01-03T05:34:38.255Z,73.46
2017-01-03T05:35:18.757Z,72.89
2017-01-03T05:35:59.269Z,72.99
2017-01-03T05:36:39.755Z,73.84
2017-01-03T05:37:20.297Z,73.65
2017-01-03T05:38:00.754Z,73.37
2017-01-03T05:38:41.290Z,73.27
2017-01-03T05:39:21.779Z,73.94
2017-01-03T05:40:02.279Z,74.51
2017-01-03T05:40:42.744Z,74.22
2017-01-03T05:41:23.282Z,74.22
2017-01-03T05:42:03.750Z,73.84
2017-01-03T05:42:44.247Z,73.46
2017-01-03T05:43:24.747Z,73.27
2017-01-03T05:44:05.213Z,73.37
2017-01-03T05:44:45.706Z,73.27
2017-01-03T05:45:26.224Z,73.75
2017-01-03T05:46:06.696Z,73.37
2017-01-03T05:46:47.184Z,73.65
2017-01-03T05:48:35.115Z,73.12
2017-01-03T05:49:15.635Z,73.56
2017-01-03T05:49:56.155Z,73.46
2017-01-03T05:50:36.796Z,73.65
2017-01-03T05:51:17.109Z,73.27
2017-01-03T05:51:57.661Z,73.65
2017-01-03T05:52:38.129Z,73.65
2017-01-03T05:53:18.667Z,73.37
2017-01-03T05:53:59.091Z,73.37
2017-01-03T05:54:39.528Z,73.37
2017-01-03T05:55:20.053Z,73.37
2017-01-03T05:56:00.531Z,73.56
2017-01-03T05:56:41.155Z,73.46
2017-01-03T05:57:21.544Z,73.46
2017-01-03T05:58:02.037Z,73.65
2017-01-03T05:58:42.576Z,73.65
2017-01-03T05:59:23.029Z,74.13
2017-01-03T06:00:03.513Z,73.94
2017-01-03T06:00:44.073Z,73.84
2017-01-03T06:01:24.446Z,73.75
2017-01-03T06:02:04.987Z,73.46
2017-01-03T06:02:45.528Z,73.94
2017-01-03T06:03:26.028Z,73.65
2017-01-03T06:04:06.529Z,73.65
2017-01-03T06:04:47.050Z,73.46
2017-01-03T06:05:27.603Z,73.46
2017-01-03T06:06:08.046Z,73.56
2017-01-03T06:06:48.540Z,73.46
2017-01-03T06:07:29.043Z,73.46
2017-01-03T06:08:09.522Z,72.89
2017-01-03T06:08:49.988Z,73.27
2017-01-03T06:09:30.484Z,72.8
2017-01-03T06:10:11.092Z,73.37
2017-01-03T06:10:51.436Z,73.37
2017-01-03T06:11:32.186Z,73.08
2017-01-03T06:12:12.697Z,73.27
2017-01-03T06:12:53.136Z,73.56
2017-01-03T06:13:33.628Z,73.37
2017-01-03T06:14:14.129Z,73.46
2017-01-03T06:14:54.636Z,74.13
2017-01-03T06:15:35.182Z,74.22
2017-01-03T06:16:15.631Z,74.79
2017-01-03T06:16:56.102Z,75.55
2017-01-03T06:17:36.603Z,75.17
2017-01-03T06:18:17.093Z,75.07
2017-01-03T06:18:57.599Z,73.94
2017-01-03T06:19:38.135Z,73.65
2017-01-03T06:20:18.599Z,74.03
2017-01-03T06:20:59.045Z,75.26
2017-01-03T06:21:39.541Z,76.4
2017-01-03T06:22:20.206Z,77.83
2017-01-03T06:23:00.655Z,79.25
2017-01-03T06:23:41.131Z,78.58
2017-01-03T06:24:21.622Z,77.16
2017-01-03T06:25:02.177Z,76.68
2017-01-03T06:25:42.656Z,76.59
2017-01-03T06:26:23.146Z,76.68
2017-01-03T06:27:03.690Z,77.06
2017-01-03T06:27:44.138Z,76.31
2017-01-03T06:28:24.610Z,76.34
2017-01-03T06:29:05.091Z,76.63
2017-01-03T06:29:45.593Z,77.01
2017-01-03T06:30:26.115Z,77.86
2017-01-03T06:31:06.555Z,75.36
2017-01-03T06:31:47.045Z,75.36
2017-01-03T06:32:27.551Z,76.59
2017-01-03T06:33:08.022Z,75.74
2017-01-03T06:33:48.507Z,75.07
2017-01-03T06:34:28.990Z,76.12
2017-01-03T06:35:09.468Z,77.54
2017-01-03T06:35:49.976Z,76.25
2017-01-03T06:36:30.499Z,76.15
2017-01-03T06:37:10.958Z,75.59
2017-01-03T06:37:51.415Z,75.31
2017-01-03T06:38:31.962Z,76.25
2017-01-03T06:39:12.372Z,77.92
2017-01-03T06:39:52.908Z,77.96
2017-01-03T06:40:33.371Z,77.67
2017-01-03T06:41:13.918Z,78.39
2017-01-03T06:41:54.367Z,77.16
2017-01-03T06:42:34.879Z,77.73
2017-01-03T06:43:15.367Z,76.4
2017-01-03T06:43:55.945Z,75.36
2017-01-03T06:44:36.377Z,74.79
2017-01-03T06:45:16.896Z,75.07
2017-01-03T06:45:57.369Z,74.98
2017-01-03T06:46:37.899Z,74.98
2017-01-03T06:47:18.415Z,75.26
2017-01-03T06:48:00.564Z,74.79
2017-01-03T06:48:41.079Z,74.51
2017-01-03T06:49:21.550Z,74.6
2017-01-03T06:50:02.161Z,76.5
2017-01-03T06:50:42.578Z,78.49
2017-01-03T06:51:23.065Z,78.67
2017-01-03T06:52:03.687Z,76.97
2017-01-03T06:52:44.228Z,76.44
2017-01-03T06:53:24.716Z,75.68
2017-01-03T06:54:05.294Z,74.92
2017-01-03T06:54:45.824Z,74.07
2017-01-03T06:55:26.293Z,73.56
2017-01-03T06:56:06.848Z,73.46
2017-01-03T06:56:47.330Z,74.6
2017-01-03T06:57:27.801Z,75.4
2017-01-03T06:58:08.274Z,74.83
2017-01-03T06:58:48.750Z,75.68
2017-01-03T06:59:29.313Z,77.86
2017-01-03T07:00:12.254Z,78.43
2017-01-03T07:00:52.673Z,77.48
2017-01-03T07:01:33.242Z,75.78
2017-01-03T07:02:13.691Z,75.11
2017-01-03T07:02:54.238Z,76.44
2017-01-03T07:03:34.736Z,85.4
2017-01-03T07:04:15.247Z,92.8
2017-01-03T07:04:55.723Z,93.75
2017-01-03T07:05:36.252Z,93.7
2017-01-03T07:06:16.731Z,96.17
2017-01-03T07:06:57.200Z,98.45
2017-01-03T07:07:37.740Z,98.97
2017-01-03T07:08:18.197Z,99.26
2017-01-03T07:08:58.685Z,99.73
2017-01-03T07:09:39.158Z,99.99
2017-01-03T07:10:19.643Z,97.78
2017-01-03T07:11:00.107Z,91.42
2017-01-03T07:11:40.656Z,84.36
2017-01-03T07:12:21.152Z,82.55
2017-01-03T07:13:01.611Z,82.36
2017-01-03T07:13:42.089Z,79.71
2017-01-03T07:14:22.639Z,78.38
2017-01-03T07:15:03.129Z,77.62
2017-01-03T07:15:43.606Z,90.57
2017-01-03T07:16:24.088Z,97.45
2017-01-03T07:17:04.573Z,99.26
2017-01-03T07:17:45.292Z,99.73
2017-01-03T07:18:25.787Z,99.99
2017-01-03T07:19:06.227Z,99.26
2017-01-03T07:19:46.739Z,98.21
2017-01-03T07:20:27.224Z,93.6
2017-01-03T07:21:07.688Z,95.27
2017-01-03T07:21:48.179Z,93.37
2017-01-03T07:22:28.613Z,95.27
2017-01-03T07:23:09.132Z,98.31
2017-01-03T07:23:49.624Z,99.07
2017-01-03T07:24:30.119Z,92.04
2017-01-03T07:25:10.592Z,83.73
2017-01-03T07:25:51.063Z,81.65
2017-01-03T07:26:31.532Z,80.88
2017-01-03T07:27:12.045Z,80.69
2017-01-03T07:27:52.472Z,79.46
2017-01-03T07:28:32.978Z,79.55
2017-01-03T07:29:13.462Z,78.7
2017-01-03T07:29:53.927Z,77.56
2017-01-03T07:30:34.424Z,77.75
2017-01-03T07:31:14.948Z,75.95
2017-01-03T07:31:55.466Z,76.71
2017-01-03T07:32:36.034Z,75.76
2017-01-03T07:33:16.501Z,74.75
2017-01-03T07:33:56.958Z,74.47
2017-01-03T07:34:37.460Z,73.52
2017-01-03T07:35:17.955Z,72.91
2017-01-03T07:35:58.521Z,73.57
2017-01-03T07:36:39.018Z,73.48
2017-01-03T07:37:19.516Z,71.48
2017-01-03T07:38:00.108Z,71.01
2017-01-03T07:38:40.607Z,72.81
2017-01-03T07:39:21.098Z,73.19
2017-01-03T07:40:01.605Z,72.15
2017-01-03T07:40:42.135Z,72.44
2017-01-03T07:41:22.568Z,69.4
2017-01-03T07:42:03.127Z,70.73
2017-01-03T07:42:43.669Z,70.25
2017-01-03T07:43:24.276Z,69.78
2017-01-03T07:44:04.761Z,69.87
2017-01-03T07:44:45.285Z,79.84
2017-01-03T07:45:25.801Z,87.01
2017-01-03T07:46:06.257Z,86.58
2017-01-03T07:46:46.706Z,89.09
2017-01-03T07:47:27.527Z,83.11
2017-01-03T07:48:28.340Z,89
2017-01-03T07:50:49.584Z,86.63
2017-01-03T07:52:44.847Z,74.33
2017-01-03T07:53:26.550Z,73.38
2017-01-03T07:54:06.995Z,74.52
2017-01-03T07:54:47.508Z,74.33
2017-01-03T07:55:28.068Z,73.23
2017-01-03T07:56:08.524Z,70.73
2017-01-03T07:56:49.014Z,69.02
2017-01-03T07:57:29.521Z,73.1
2017-01-03T07:58:09.982Z,83.16
2017-01-03T07:58:50.457Z,85.49
2017-01-03T07:59:30.921Z,92.8
2017-01-03T08:00:11.414Z,94.51
2017-01-03T08:00:52.156Z,91.94
2017-01-03T08:01:32.610Z,93.65
2017-01-03T08:02:13.065Z,92.04
2017-01-03T08:02:53.567Z,86.34
2017-01-03T08:03:34.064Z,88.9
2017-01-03T08:04:14.571Z,88.53
2017-01-03T08:04:55.032Z,82.73
2017-01-03T08:05:35.616Z,77.31
2017-01-03T08:06:16.099Z,74.94
2017-01-03T08:06:56.566Z,74.56
2017-01-03T08:07:37.173Z,73.14
2017-01-03T08:08:17.658Z,72.38
2017-01-03T08:08:58.113Z,72.95
2017-01-03T08:09:38.569Z,73.8
2017-01-03T08:10:19.077Z,72.85
2017-01-03T08:10:59.582Z,72.75
2017-01-03T08:11:40.045Z,71.71
2017-01-03T08:12:20.576Z,70.95
2017-01-03T08:13:01.073Z,70.48
2017-01-03T08:13:41.539Z,69.34
2017-01-03T08:14:22.063Z,69.71
2017-01-03T08:15:02.580Z,70.38
2017-01-03T08:15:43.024Z,67.88
2017-01-03T08:16:23.515Z,68.64
2017-01-03T08:17:03.987Z,69.91
2017-01-03T08:17:44.502Z,70.63
2017-01-03T08:18:24.961Z,70.29
2017-01-03T08:19:05.507Z,68.83
2017-01-03T08:19:46.115Z,68.16
2017-01-03T08:20:26.674Z,67.5
2017-01-03T08:21:08.054Z,68.16
2017-01-03T08:21:48.598Z,69.49
2017-01-03T08:22:29.082Z,70.35
2017-01-03T08:23:10.570Z,70.06
2017-01-03T08:23:50.993Z,71.86
2017-01-03T08:24:31.717Z,71.67
2017-01-03T08:25:12.302Z,70.25
2017-01-03T08:25:52.840Z,70.06
2017-01-03T08:26:33.277Z,70.73
2017-01-03T08:27:13.900Z,72.44
2017-01-03T08:27:54.505Z,73.86
2017-01-03T08:28:34.923Z,73.23
2017-01-03T08:29:15.505Z,72.38
2017-01-03T08:29:57.083Z,71.11
2017-01-03T08:30:39.497Z,80.26
2017-01-03T08:31:19.956Z,83.78
2017-01-03T08:32:00.443Z,85.58
2017-01-03T08:32:40.928Z,89.86
2017-01-03T08:33:21.396Z,92.42
2017-01-03T08:34:01.903Z,83.68
2017-01-03T08:34:42.434Z,80.26
2017-01-03T08:35:22.903Z,81.59
2017-01-03T08:36:03.385Z,84.72
2017-01-03T08:36:43.873Z,86.24
2017-01-03T08:37:24.327Z,79.22
2017-01-03T08:38:04.819Z,74.18
2017-01-03T08:38:45.284Z,73.8
2017-01-03T08:39:25.801Z,72
2017-01-03T08:40:06.292Z,73.9
2017-01-03T08:40:46.781Z,72
2017-01-03T08:41:27.293Z,69.81
2017-01-03T08:42:07.779Z,68.86
2017-01-03T08:42:48.233Z,68.67
2017-01-03T08:43:28.779Z,72.47
2017-01-03T08:44:09.287Z,72.38
2017-01-03T08:44:49.717Z,71.43
2017-01-03T08:45:30.223Z,71.9
2017-01-03T08:46:10.730Z,69.43
2017-01-03T08:46:51.240Z,70.38
2017-01-03T08:47:31.725Z,70.95
2017-01-03T08:48:12.276Z,70.76
2017-01-03T08:48:52.892Z,70.38
2017-01-03T08:49:33.332Z,71.14
2017-01-03T08:50:13.834Z,73.61
2017-01-03T08:50:54.322Z,83.2
2017-01-03T08:51:34.833Z,87.48